createdAt,value
2022-08-03T00:03:06.869Z,24.812
2022-08-03T00:06:57.852Z,24.812
2022-08-03T00:10:45.449Z,24.812
2022-08-03T00:14:28.418Z,24.812
2022-08-03T00:18:36.134Z,24.812
2022-08-03T00:22:16.474Z,24.75
2022-08-03T00:26:22.914Z,24.812
2022-08-03T00:30:38.324Z,24.75
2022-08-03T00:36:23.034Z,24.812
2022-08-03T00:40:26.281Z,24.75
2022-08-03T00:44:14.317Z,24.812
2022-08-03T00:48:01.165Z,24.812
2022-08-03T00:52:07.806Z,24.812
2022-08-03T00:55:50.295Z,24.812
2022-08-03T00:59:51.710Z,24.812
2022-08-03T01:03:12.796Z,24.812
2022-08-03T01:06:52.942Z,24.812
2022-08-03T01:10:32.797Z,24.812
2022-08-03T01:15:43.116Z,24.812
2022-08-03T01:19:33.122Z,24.812
2022-08-03T01:23:15.632Z,24.812
2022-08-03T01:26:57.794Z,24.812
2022-08-03T01:30:37.846Z,24.875
2022-08-03T01:35:46.137Z,24.875
2022-08-03T01:39:30.624Z,24.875
2022-08-03T01:43:10.694Z,24.875
2022-08-03T01:48:12.484Z,24.875
2022-08-03T01:52:37.028Z,24.875
2022-08-03T01:56:17.065Z,24.875
2022-08-03T01:59:58.192Z,24.812
2022-08-03T02:04:32.868Z,24.812
2022-08-03T02:08:53.646Z,24.812
2022-08-03T02:12:33.856Z,24.812
2022-08-03T02:16:14.927Z,24.812
2022-08-03T02:20:18.601Z,24.812
2022-08-03T02:24:51.159Z,24.812
2022-08-03T02:28:34.015Z,24.812
2022-08-03T02:32:40.380Z,24.812
2022-08-03T02:36:20.348Z,24.812
2022-08-03T02:40:00.320Z,24.812
2022-08-03T02:44:06.486Z,24.812
2022-08-03T02:48:15.406Z,24.812
2022-08-03T02:52:50.807Z,24.812
2022-08-03T02:56:34.518Z,24.812
2022-08-03T03:03:21.451Z,24.812
2022-08-03T03:09:02.753Z,24.812
2022-08-03T03:12:47.417Z,24.812
2022-08-03T03:16:27.381Z,24.812
2022-08-03T03:20:13.742Z,24.812
2022-08-03T03:24:11.350Z,24.812
2022-08-03T03:27:56.034Z,24.75
2022-08-03T03:31:41.704Z,24.812
2022-08-03T03:35:28.498Z,24.75
2022-08-03T03:39:15.822Z,24.75
2022-08-03T03:43:03.049Z,24.75
2022-08-03T03:46:45.239Z,24.75
2022-08-03T03:50:29.662Z,24.75
2022-08-03T03:54:09.673Z,24.75
2022-08-03T03:57:56.788Z,24.75
2022-08-03T04:03:07.077Z,24.75
2022-08-03T04:08:40.774Z,24.75
2022-08-03T04:12:35.469Z,24.75
2022-08-03T04:16:28.608Z,24.75
2022-08-03T04:20:15.572Z,24.75
2022-08-03T04:24:04.093Z,24.75
2022-08-03T04:27:44.254Z,24.75
2022-08-03T04:32:14.854Z,24.75
2022-08-03T04:36:38.799Z,24.75
2022-08-03T04:40:23.182Z,24.75
2022-08-03T04:44:40.011Z,24.75
2022-08-03T04:48:29.438Z,24.75
2022-08-03T04:52:14.534Z,24.75
2022-08-03T04:55:56.901Z,24.75
2022-08-03T04:59:49.660Z,24.75
2022-08-03T05:03:19.510Z,24.812
2022-08-03T05:08:11.066Z,24.812
2022-08-03T05:12:51.295Z,24.812
2022-08-03T05:16:31.994Z,24.875
2022-08-03T05:20:12.388Z,24.875
2022-08-03T05:24:19.022Z,24.875
2022-08-03T05:28:18.118Z,24.875
2022-08-03T05:32:28.732Z,24.875
2022-08-03T05:36:52.316Z,25.0
2022-08-03T05:41:22.399Z,25.062
2022-08-03T05:45:13.823Z,25.187
2022-08-03T05:49:07.746Z,25.25
2022-08-03T05:53:02.750Z,25.312
2022-08-03T05:57:03.415Z,25.437
2022-08-03T06:03:11.116Z,25.5
2022-08-03T06:06:58.876Z,25.562
2022-08-03T06:11:26.637Z,25.562
2022-08-03T06:15:11.662Z,25.625
2022-08-03T06:19:01.777Z,25.625
2022-08-03T06:23:21.683Z,25.625
2022-08-03T06:28:14.979Z,25.625
2022-08-03T06:32:30.094Z,25.562
2022-08-03T06:37:34.245Z,25.562
2022-08-03T06:41:17.145Z,25.562
2022-08-03T06:45:35.235Z,25.625
2022-08-03T06:49:21.091Z,25.687
2022-08-03T06:54:24.151Z,25.687
2022-08-03T06:58:25.916Z,25.687
2022-08-03T07:03:18.337Z,25.687
2022-08-03T07:06:58.401Z,25.75
2022-08-03T07:10:47.177Z,25.687
2022-08-03T07:14:42.459Z,25.687
2022-08-03T07:19:07.432Z,25.687
2022-08-03T07:22:53.059Z,25.687
2022-08-03T07:26:34.528Z,25.687
2022-08-03T07:30:24.250Z,25.687
2022-08-03T07:34:25.078Z,25.687
2022-08-03T07:38:31.635Z,25.687
2022-08-03T07:42:24.271Z,25.687
2022-08-03T07:46:05.566Z,25.687
2022-08-03T07:50:04.731Z,25.687
2022-08-03T07:53:52.951Z,25.687
2022-08-03T07:57:40.585Z,25.687
2022-08-03T08:03:07.523Z,25.625
2022-08-03T08:06:52.825Z,25.625
2022-08-03T08:10:39.675Z,25.625
2022-08-03T08:14:41.807Z,25.625
2022-08-03T08:18:31.077Z,25.625
2022-08-03T08:23:01.595Z,25.625
2022-08-03T08:28:22.203Z,25.625
2022-08-03T08:32:39.037Z,25.625
2022-08-03T08:36:57.977Z,25.625
2022-08-03T08:40:51.893Z,25.625
2022-08-03T08:44:50.416Z,25.625
2022-08-03T08:48:45.969Z,25.562
2022-08-03T08:54:10.763Z,25.625
2022-08-03T08:58:24.219Z,25.625
2022-08-03T09:03:08.557Z,25.625
2022-08-03T09:08:06.645Z,25.625
2022-08-03T09:13:31.077Z,25.625
2022-08-03T09:18:11.782Z,25.625
2022-08-03T09:22:19.001Z,25.625
2022-08-03T09:27:53.335Z,25.625
2022-08-03T09:32:27.481Z,25.625
2022-08-03T09:36:42.877Z,25.625
2022-08-03T09:41:32.302Z,25.687
2022-08-03T09:45:14.739Z,25.687
2022-08-03T09:48:57.438Z,25.687
2022-08-03T09:54:58.156Z,25.687
2022-08-03T10:03:17.444Z,25.75
2022-08-03T10:07:11.778Z,25.75
2022-08-03T10:11:21.460Z,25.75
2022-08-03T10:16:23.291Z,25.75
2022-08-03T10:20:11.889Z,25.75
2022-08-03T10:23:54.806Z,25.75
2022-08-03T10:27:39.398Z,25.812
2022-08-03T10:31:24.733Z,25.875
2022-08-03T10:36:03.845Z,25.875
2022-08-03T10:39:59.513Z,25.875
2022-08-03T10:44:09.847Z,25.937
2022-08-03T10:47:50.554Z,26.0
2022-08-03T10:51:32.437Z,26.062
2022-08-03T10:56:02.298Z,26.062
2022-08-03T11:03:38.791Z,26.0
2022-08-03T11:07:26.489Z,26.0
2022-08-03T11:11:07.290Z,26.0
2022-08-03T11:14:59.417Z,26.0
2022-08-03T11:19:19.236Z,26.0
2022-08-03T11:24:05.307Z,26.062
2022-08-03T11:28:35.459Z,26.062
2022-08-03T11:32:46.884Z,26.125
2022-08-03T11:36:32.259Z,26.125
2022-08-03T11:40:46.615Z,26.125
2022-08-03T11:44:37.542Z,26.125
2022-08-03T11:48:34.358Z,26.187
2022-08-03T11:52:15.536Z,26.187
2022-08-03T11:56:13.594Z,26.187
2022-08-03T12:03:15.787Z,26.25
2022-08-03T12:06:56.158Z,26.25
2022-08-03T12:11:07.208Z,26.25
2022-08-03T12:16:43.100Z,26.187
2022-08-03T12:20:34.457Z,26.187
2022-08-03T12:24:28.683Z,26.25
2022-08-03T12:29:15.507Z,26.25
2022-08-03T12:32:56.933Z,26.25
2022-08-03T12:36:43.160Z,26.25
2022-08-03T12:41:00.630Z,26.25
2022-08-03T12:44:43.617Z,26.312
2022-08-03T12:48:44.109Z,26.312
2022-08-03T12:52:39.356Z,26.312
2022-08-03T12:56:49.070Z,26.375
2022-08-03T13:04:38.864Z,26.375
2022-08-03T13:08:37.911Z,26.437
2022-08-03T13:12:47.276Z,26.437
2022-08-03T13:16:40.768Z,26.437
2022-08-03T13:20:22.675Z,26.437
2022-08-03T13:24:46.147Z,26.437
2022-08-03T13:29:49.503Z,26.5
2022-08-03T13:33:42.236Z,26.5
2022-08-03T13:37:57.072Z,26.5
2022-08-03T13:42:19.984Z,26.5
2022-08-03T13:46:29.726Z,26.562
2022-08-03T13:50:45.012Z,26.562
2022-08-03T13:54:25.014Z,26.562
2022-08-03T13:58:56.207Z,26.625
2022-08-03T14:03:57.574Z,26.625
2022-08-03T14:07:51.935Z,26.625
2022-08-03T14:12:28.445Z,26.687
2022-08-03T14:16:23.717Z,26.687
2022-08-03T14:21:32.318Z,26.75
2022-08-03T14:25:24.837Z,26.75
2022-08-03T14:29:31.740Z,26.812
2022-08-03T14:34:04.185Z,26.812
2022-08-03T14:37:44.191Z,26.812
2022-08-03T14:42:02.626Z,26.812
2022-08-03T14:46:08.851Z,26.812
2022-08-03T14:52:41.769Z,26.812
2022-08-03T14:56:42.329Z,26.812
2022-08-03T15:04:10.070Z,26.875
2022-08-03T15:07:50.741Z,26.875
2022-08-03T15:12:35.181Z,26.875
2022-08-03T15:16:26.613Z,26.875
2022-08-03T15:22:08.335Z,26.875
2022-08-03T15:27:27.147Z,26.875
2022-08-03T15:32:09.559Z,26.937
2022-08-03T15:35:49.657Z,26.937
2022-08-03T15:39:59.157Z,26.937
2022-08-03T15:43:48.179Z,26.937
2022-08-03T15:48:04.281Z,26.937
2022-08-03T15:51:49.712Z,26.937
2022-08-03T15:55:36.495Z,26.937
2022-08-03T16:03:27.521Z,26.875
2022-08-03T16:08:56.992Z,26.875
2022-08-03T16:13:14.747Z,26.875
2022-08-03T16:18:05.653Z,26.875
2022-08-03T16:22:35.149Z,26.937
2022-08-03T16:26:41.040Z,26.875
2022-08-03T16:31:16.052Z,26.875
2022-08-03T16:35:04.140Z,26.875
2022-08-03T16:39:54.487Z,26.875
2022-08-03T16:44:04.336Z,26.875
2022-08-03T16:48:01.849Z,26.875
2022-08-03T16:52:46.978Z,26.875
2022-08-03T16:58:34.532Z,26.812
2022-08-03T17:04:45.185Z,26.812
2022-08-03T17:09:38.472Z,26.812
2022-08-03T17:13:45.942Z,26.875
2022-08-03T17:18:22.969Z,26.812
2022-08-03T17:22:45.006Z,26.875
2022-08-03T17:28:41.485Z,26.812
2022-08-03T17:34:21.711Z,26.812
2022-08-03T17:40:38.045Z,26.812
2022-08-03T17:46:45.977Z,26.812
2022-08-03T17:51:23.443Z,26.812
2022-08-03T17:58:23.476Z,26.75
2022-08-03T18:05:17.211Z,26.75
2022-08-03T18:12:18.924Z,26.75
2022-08-03T19:04:50.737Z,26.562
2022-08-03T19:09:30.217Z,26.562
2022-08-03T19:14:42.267Z,26.562
2022-08-03T19:19:05.456Z,26.562
2022-08-03T19:23:12.176Z,26.562
2022-08-03T19:27:31.381Z,26.5
2022-08-03T19:32:48.347Z,26.5
2022-08-03T19:38:12.220Z,26.5
2022-08-03T19:43:04.623Z,26.437
2022-08-03T19:48:06.754Z,26.437
2022-08-03T19:53:34.649Z,26.437
2022-08-03T19:57:54.864Z,26.437
2022-08-03T20:04:29.255Z,26.375
2022-08-03T20:08:44.066Z,26.375
2022-08-03T20:13:10.720Z,26.375
2022-08-03T20:18:23.424Z,26.375
2022-08-03T20:22:35.128Z,26.375
2022-08-03T21:03:40.625Z,26.312
2022-08-03T21:09:07.643Z,26.312
2022-08-03T21:13:36.381Z,26.312
2022-08-03T21:18:30.608Z,26.312
2022-08-03T21:22:25.170Z,26.25
2022-08-03T21:26:41.733Z,26.25
2022-08-03T21:30:41.064Z,26.25
2022-08-03T21:34:30.201Z,26.25
2022-08-03T21:38:10.536Z,26.25
2022-08-03T21:41:59.708Z,26.25
2022-08-03T21:46:00.021Z,26.25
2022-08-03T21:50:48.875Z,26.25
2022-08-03T21:54:52.553Z,26.25
2022-08-03T21:58:32.679Z,26.25
2022-08-03T22:03:54.111Z,26.187
2022-08-03T22:08:31.096Z,26.187
2022-08-03T22:12:17.316Z,26.187
2022-08-03T22:16:30.326Z,26.187
2022-08-03T22:20:49.756Z,26.187
2022-08-03T22:24:50.352Z,26.187
2022-08-03T22:28:30.316Z,26.187
2022-08-03T22:32:47.549Z,26.187
2022-08-03T22:36:36.837Z,26.187
2022-08-03T22:40:19.635Z,26.187
2022-08-03T22:43:59.485Z,26.187
2022-08-03T22:48:53.022Z,26.187
2022-08-03T22:53:19.281Z,26.125
2022-08-03T22:57:12.272Z,26.125
2022-08-03T23:03:10.369Z,26.125
2022-08-03T23:07:49.814Z,26.125
2022-08-03T23:11:35.385Z,26.125
2022-08-03T23:15:21.289Z,26.125
2022-08-03T23:20:03.025Z,26.125
2022-08-03T23:25:18.972Z,26.125
2022-08-03T23:28:59.092Z,26.125
2022-08-03T23:32:44.125Z,26.062
2022-08-03T23:37:18.566Z,26.062
2022-08-03T23:41:28.701Z,26.062
2022-08-03T23:45:49.483Z,26.062
2022-08-03T23:49:39.669Z,26.062
2022-08-03T23:53:19.505Z,26.062
2022-08-03T23:56:59.099Z,26.062
